createdAt,value
2022-09-13T00:02:20.103Z,19.70
2022-09-13T00:04:47.892Z,19.70
2022-09-13T00:07:15.656Z,19.70
2022-09-13T00:09:43.423Z,19.70
2022-09-13T00:12:12.548Z,19.70
2022-09-13T00:14:40.319Z,19.70
2022-09-13T00:17:08.310Z,19.70
2022-09-13T00:19:36.294Z,19.70
2022-09-13T00:22:06.501Z,19.70
2022-09-13T00:24:34.445Z,19.70
2022-09-13T00:27:02.562Z,19.70
2022-09-13T00:29:31.847Z,19.70
2022-09-13T00:31:59.656Z,19.70
2022-09-13T00:34:27.596Z,19.70
2022-09-13T00:36:55.448Z,19.70
2022-09-13T00:39:23.523Z,19.70
2022-09-13T00:41:51.677Z,19.70
2022-09-13T00:44:51.599Z,19.70
2022-09-13T00:47:23.957Z,19.70
2022-09-13T00:49:56.176Z,19.70
2022-09-13T00:52:26.974Z,19.60
2022-09-13T00:55:01.320Z,19.60
2022-09-13T00:57:33.076Z,19.70
2022-09-13T01:00:09.147Z,19.60
2022-09-13T01:02:37.142Z,19.60
2022-09-13T01:05:05.517Z,19.60
2022-09-13T01:07:34.267Z,19.60
2022-09-13T01:10:07.601Z,19.70
2022-09-13T01:12:40.515Z,19.70
2022-09-13T01:15:10.329Z,19.60
2022-09-13T01:17:40.081Z,19.70
2022-09-13T01:20:11.136Z,19.70
2022-09-13T01:23:07.958Z,19.70
2022-09-13T01:26:02.819Z,19.70
2022-09-13T01:28:58.966Z,19.70
2022-09-13T01:31:36.502Z,19.70
2022-09-13T01:34:16.321Z,19.70
2022-09-13T01:36:56.319Z,19.70
2022-09-13T01:39:34.895Z,19.70
2022-09-13T01:42:17.571Z,19.60
2022-09-13T01:45:01.517Z,19.70
2022-09-13T01:47:35.919Z,19.60
2022-09-13T01:50:16.539Z,19.60
2022-09-13T01:52:52.404Z,19.60
2022-09-13T01:55:28.198Z,19.60
2022-09-13T01:58:03.740Z,19.60
2022-09-13T02:00:38.413Z,19.60
2022-09-13T02:03:12.503Z,19.60
2022-09-13T02:05:44.075Z,19.60
2022-09-13T02:08:18.059Z,19.60
2022-09-13T02:10:51.260Z,19.60
2022-09-13T02:13:23.631Z,19.60
2022-09-13T02:15:55.703Z,19.70
2022-09-13T02:18:29.470Z,19.60
2022-09-13T02:21:01.913Z,19.60
2022-09-13T02:23:38.737Z,19.60
2022-09-13T02:26:08.591Z,19.60
2022-09-13T02:28:40.916Z,19.60
2022-09-13T02:31:10.309Z,19.60
2022-09-13T02:33:44.965Z,19.60
2022-09-13T02:36:16.399Z,19.60
2022-09-13T02:38:48.198Z,19.60
2022-09-13T02:41:23.524Z,19.60
2022-09-13T02:43:56.450Z,19.60
2022-09-13T02:46:40.902Z,19.70
2022-09-13T02:49:16.884Z,19.70
2022-09-13T02:51:53.527Z,19.70
2022-09-13T02:54:31.451Z,19.70
2022-09-13T02:57:06.126Z,19.60
2022-09-13T02:59:34.619Z,19.70
2022-09-13T03:02:06.640Z,19.60
2022-09-13T03:04:36.795Z,19.60
2022-09-13T03:07:05.100Z,19.60
2022-09-13T03:09:33.671Z,19.60
2022-09-13T03:12:22.764Z,19.60
2022-09-13T03:14:56.006Z,19.60
2022-09-13T03:17:37.040Z,19.60
2022-09-13T03:20:13.237Z,19.60
2022-09-13T03:23:13.945Z,19.60
2022-09-13T03:25:57.821Z,19.60
2022-09-13T03:28:35.802Z,19.60
2022-09-13T03:31:10.228Z,19.60
2022-09-13T03:33:48.126Z,19.60
2022-09-13T03:36:22.753Z,19.60
2022-09-13T03:38:57.641Z,19.60
2022-09-13T03:41:28.795Z,19.60
2022-09-13T03:44:00.707Z,19.60
2022-09-13T03:46:33.593Z,19.50
2022-09-13T03:49:04.310Z,19.50
2022-09-13T03:51:34.274Z,19.50
2022-09-13T03:54:05.551Z,19.50
2022-09-13T03:56:33.398Z,19.50
2022-09-13T03:59:01.304Z,19.50
2022-09-13T04:01:29.341Z,19.50
2022-09-13T04:03:57.312Z,19.50
2022-09-13T04:06:25.100Z,19.50
2022-09-13T04:08:54.425Z,19.50
2022-09-13T04:11:22.138Z,19.40
2022-09-13T04:13:50.511Z,19.40
2022-09-13T04:16:18.573Z,19.40
2022-09-13T04:18:46.413Z,19.50
2022-09-13T04:21:14.140Z,19.40
2022-09-13T04:23:42.091Z,19.40
2022-09-13T04:26:11.626Z,19.30
2022-09-13T04:28:39.370Z,19.30
2022-09-13T04:31:07.265Z,19.30
2022-09-13T04:33:36.629Z,19.30
2022-09-13T04:36:04.466Z,19.20
2022-09-13T04:38:32.406Z,19.30
2022-09-13T04:41:00.096Z,19.20
2022-09-13T04:43:29.206Z,19.20
2022-09-13T04:46:01.022Z,19.20
2022-09-13T04:48:29.565Z,19.20
2022-09-13T04:51:02.940Z,19.20
2022-09-13T04:53:30.834Z,19.20
2022-09-13T04:56:01.799Z,19.20
2022-09-13T04:58:31.175Z,19.10
2022-09-13T05:01:02.546Z,19.10
2022-09-13T05:03:31.132Z,19.10
2022-09-13T05:06:04.279Z,19.70
2022-09-13T05:08:32.634Z,19.10
2022-09-13T05:11:00.551Z,19.10
2022-09-13T05:13:29.801Z,19.10
2022-09-13T05:15:58.067Z,19.10
2022-09-13T05:18:27.990Z,19.20
2022-09-13T05:20:56.330Z,19.20
2022-09-13T05:23:25.098Z,19.20
2022-09-13T05:25:56.540Z,19.20
2022-09-13T05:28:25.256Z,19.20
2022-09-13T05:30:58.763Z,19.20
2022-09-13T05:33:27.777Z,19.30
2022-09-13T05:35:55.871Z,19.30
2022-09-13T05:38:24.150Z,19.30
2022-09-13T05:40:57.052Z,19.30
2022-09-13T05:43:26.437Z,19.30
2022-09-13T05:46:03.642Z,19.30
2022-09-13T05:48:32.301Z,19.30
2022-09-13T05:51:06.331Z,19.40
2022-09-13T05:53:34.291Z,19.40
2022-09-13T05:56:02.441Z,19.40
2022-09-13T05:58:30.181Z,19.40
2022-09-13T06:00:59.198Z,19.50
2022-09-13T06:03:28.478Z,19.50
2022-09-13T06:05:57.378Z,19.50
2022-09-13T06:08:25.728Z,19.60
2022-09-13T06:10:58.092Z,19.60
2022-09-13T06:13:26.862Z,19.70
2022-09-13T06:15:55.671Z,19.70
2022-09-13T06:18:24.645Z,19.70
2022-09-13T06:20:59.554Z,19.80
2022-09-13T06:23:28.444Z,19.90
2022-09-13T06:26:03.846Z,19.90
2022-09-13T06:28:36.793Z,20.00
2022-09-13T06:31:07.634Z,20.00
2022-09-13T06:33:36.154Z,20.00
2022-09-13T06:36:08.177Z,20.10
2022-09-13T06:38:36.255Z,20.10
2022-09-13T06:41:06.093Z,20.20
2022-09-13T06:43:34.280Z,20.30
2022-09-13T06:46:03.264Z,20.30
2022-09-13T06:48:34.592Z,20.30
2022-09-13T06:51:03.596Z,20.40
2022-09-13T06:53:33.981Z,20.40
2022-09-13T06:56:03.491Z,20.50
2022-09-13T06:58:33.486Z,20.50
2022-09-13T07:01:12.079Z,20.60
2022-09-13T07:03:41.427Z,20.60
2022-09-13T07:06:13.894Z,20.70
2022-09-13T07:08:44.573Z,20.70
2022-09-13T07:11:15.634Z,20.80
2022-09-13T07:13:43.554Z,20.90
2022-09-13T07:16:12.615Z,20.90
2022-09-13T07:18:40.441Z,21.00
2022-09-13T07:21:09.582Z,21.10
2022-09-13T07:23:39.019Z,21.10
2022-09-13T07:26:09.271Z,21.10
2022-09-13T07:28:39.082Z,21.20
2022-09-13T07:31:09.534Z,21.30
2022-09-13T07:33:38.067Z,21.20
2022-09-13T07:36:07.292Z,21.20
2022-09-13T07:38:36.275Z,21.20
2022-09-13T07:41:06.659Z,21.30
2022-09-13T07:43:36.296Z,21.30
2022-09-13T07:46:05.935Z,21.40
2022-09-13T07:48:36.002Z,21.40
2022-09-13T07:51:05.761Z,21.30
2022-09-13T07:53:35.355Z,21.30
2022-09-13T07:56:03.981Z,21.40
2022-09-13T07:58:33.032Z,21.50
2022-09-13T08:01:06.317Z,21.50
2022-09-13T08:03:35.041Z,21.60
2022-09-13T08:06:03.316Z,21.70
2022-09-13T08:08:32.206Z,21.60
2022-09-13T08:11:00.994Z,21.50
2022-09-13T08:13:29.746Z,21.60
2022-09-13T08:15:57.926Z,21.70
2022-09-13T08:18:27.138Z,21.90
2022-09-13T08:20:57.973Z,21.90
2022-09-13T08:23:25.962Z,22.00
2022-09-13T08:25:53.959Z,21.90
2022-09-13T08:28:27.522Z,21.80
2022-09-13T08:30:55.676Z,21.80
2022-09-13T08:33:23.501Z,21.90
2022-09-13T08:35:53.579Z,22.00
2022-09-13T08:38:21.561Z,21.90
2022-09-13T08:40:54.259Z,22.00
2022-09-13T08:43:32.763Z,22.00
2022-09-13T08:46:05.802Z,22.10
2022-09-13T08:48:36.579Z,22.10
2022-09-13T08:51:08.787Z,22.00
2022-09-13T08:53:45.882Z,22.00
2022-09-13T08:56:19.662Z,22.10
2022-09-13T08:59:13.053Z,22.20
2022-09-13T09:01:52.636Z,22.20
2022-09-13T09:04:38.563Z,22.30
2022-09-13T09:07:12.591Z,22.40
2022-09-13T09:09:46.575Z,22.40
2022-09-13T09:12:23.839Z,22.50
2022-09-13T09:15:01.699Z,22.50
2022-09-13T09:17:34.213Z,22.60
2022-09-13T09:20:10.349Z,22.70
2022-09-13T09:22:39.707Z,22.70
2022-09-13T09:25:10.544Z,22.80
2022-09-13T09:27:38.602Z,22.90
2022-09-13T09:30:13.330Z,22.80
2022-09-13T09:32:59.174Z,22.70
2022-09-13T09:35:37.845Z,22.70
2022-09-13T09:38:34.945Z,22.60
2022-09-13T09:41:06.756Z,22.60
2022-09-13T09:43:40.333Z,22.60
2022-09-13T09:46:11.845Z,22.70
2022-09-13T09:48:45.218Z,22.80
2022-09-13T09:51:15.701Z,22.90
2022-09-13T09:53:48.215Z,22.90
2022-09-13T09:56:23.846Z,23.10
2022-09-13T09:58:54.188Z,23.20
2022-09-13T10:01:26.141Z,23.30
2022-09-13T10:04:02.143Z,23.40
2022-09-13T10:06:31.012Z,23.40
2022-09-13T10:09:02.393Z,23.20
2022-09-13T10:11:41.846Z,23.00
2022-09-13T10:14:30.457Z,22.80
2022-09-13T10:17:17.882Z,22.90
2022-09-13T10:19:58.638Z,23.00
2022-09-13T10:22:27.448Z,23.00
2022-09-13T10:24:57.055Z,23.10
2022-09-13T10:27:31.090Z,23.00
2022-09-13T10:30:02.060Z,22.70
2022-09-13T10:32:30.753Z,22.90
2022-09-13T10:35:08.945Z,23.00
2022-09-13T10:37:37.511Z,23.00
2022-09-13T10:40:14.414Z,23.00
2022-09-13T10:42:51.678Z,23.00
2022-09-13T10:45:24.435Z,23.00
2022-09-13T10:47:55.163Z,22.90
2022-09-13T10:50:25.867Z,23.00
2022-09-13T10:52:54.429Z,23.10
2022-09-13T10:55:33.132Z,23.20
2022-09-13T10:58:15.959Z,23.10
2022-09-13T11:01:08.741Z,23.00
2022-09-13T11:03:55.813Z,23.10
2022-09-13T11:06:31.706Z,23.10
2022-09-13T11:09:09.386Z,23.10
2022-09-13T11:11:44.254Z,23.30
2022-09-13T11:14:26.204Z,23.40
2022-09-13T11:17:04.541Z,23.00
2022-09-13T11:19:56.898Z,22.90
2022-09-13T11:22:40.803Z,22.90
2022-09-13T11:25:20.719Z,22.90
2022-09-13T11:27:59.479Z,22.80
2022-09-13T11:30:32.414Z,22.70
2022-09-13T11:33:31.286Z,22.80
2022-09-13T11:36:31.236Z,23.20
2022-09-13T11:39:09.001Z,23.10
2022-09-13T11:41:44.366Z,22.90
2022-09-13T11:44:39.538Z,22.80
2022-09-13T11:47:17.637Z,22.90
2022-09-13T11:50:05.322Z,22.90
2022-09-13T11:52:46.448Z,22.90
2022-09-13T11:55:19.259Z,23.00
2022-09-13T11:57:51.283Z,23.00
2022-09-13T12:00:25.999Z,23.00
2022-09-13T12:03:03.559Z,23.10
2022-09-13T12:05:34.971Z,23.10
2022-09-13T12:08:07.797Z,23.00
2022-09-13T12:10:42.858Z,23.00
2022-09-13T12:13:16.046Z,23.00
2022-09-13T12:15:47.701Z,22.90
2022-09-13T12:18:20.689Z,22.80
2022-09-13T12:20:52.323Z,22.70
2022-09-13T12:23:25.247Z,22.70
2022-09-13T12:25:59.203Z,22.80
2022-09-13T12:28:30.736Z,22.90
2022-09-13T12:31:05.721Z,22.90
2022-09-13T12:33:33.819Z,23.00
2022-09-13T12:36:50.594Z,22.90
2022-09-13T12:39:49.884Z,23.00
2022-09-13T12:42:59.105Z,23.00
2022-09-13T12:45:40.299Z,22.90
2022-09-13T12:48:42.755Z,22.80
2022-09-13T12:51:19.485Z,22.70
2022-09-13T12:54:05.775Z,22.70
2022-09-13T12:56:57.146Z,22.90
2022-09-13T12:59:50.701Z,22.90
2022-09-13T13:02:29.470Z,22.90
2022-09-13T13:05:03.528Z,23.00
2022-09-13T13:07:34.922Z,23.00
2022-09-13T13:10:03.332Z,23.10
2022-09-13T13:12:34.435Z,23.00
2022-09-13T13:15:02.883Z,23.10
2022-09-13T13:17:43.797Z,23.10
2022-09-13T13:20:47.277Z,23.10
2022-09-13T13:23:25.328Z,23.00
2022-09-13T13:26:02.659Z,23.10
2022-09-13T13:28:52.007Z,23.30
2022-09-13T13:31:40.245Z,23.30
2022-09-13T13:34:35.121Z,23.40
2022-09-13T13:37:06.696Z,23.40
2022-09-13T13:39:37.762Z,23.40
2022-09-13T13:42:14.617Z,23.30
2022-09-13T13:45:20.188Z,23.30
2022-09-13T13:48:11.636Z,23.20
2022-09-13T13:51:31.633Z,23.20
2022-09-13T13:54:05.641Z,23.20
2022-09-13T13:56:48.177Z,23.10
2022-09-13T13:59:23.464Z,23.00
2022-09-13T14:01:55.629Z,23.00
2022-09-13T14:05:00.016Z,22.90
2022-09-13T14:07:59.458Z,23.00
2022-09-13T14:10:40.159Z,22.80
2022-09-13T14:13:23.779Z,22.70
2022-09-13T14:16:02.021Z,22.70
2022-09-13T14:18:59.428Z,22.90
2022-09-13T14:21:29.409Z,22.90
2022-09-13T14:24:16.949Z,23.00
2022-09-13T14:26:47.424Z,22.90
2022-09-13T14:29:19.302Z,22.80
2022-09-13T14:31:48.681Z,22.90
2022-09-13T14:34:22.818Z,23.00
2022-09-13T14:36:56.939Z,23.00
2022-09-13T14:39:25.606Z,23.00
2022-09-13T14:42:01.447Z,22.90
2022-09-13T14:44:30.200Z,22.80
2022-09-13T14:47:10.073Z,22.80
2022-09-13T14:49:45.281Z,22.90
2022-09-13T14:52:20.443Z,23.00
2022-09-13T14:54:52.959Z,23.00
2022-09-13T14:57:28.631Z,23.10
2022-09-13T14:59:59.924Z,22.90
2022-09-13T15:02:30.984Z,22.90
2022-09-13T15:05:00.632Z,22.90
2022-09-13T15:07:31.650Z,22.80
2022-09-13T15:10:08.910Z,22.70
2022-09-13T15:12:39.230Z,22.60
2022-09-13T15:15:37.643Z,22.50
2022-09-13T15:18:07.778Z,22.70
2022-09-13T15:20:50.607Z,22.60
2022-09-13T15:23:20.424Z,22.50
2022-09-13T15:25:54.817Z,22.40
2022-09-13T15:28:29.142Z,22.30
2022-09-13T15:30:59.524Z,22.30
2022-09-13T15:33:30.399Z,22.40
2022-09-13T15:36:31.854Z,22.40
2022-09-13T15:39:16.745Z,22.30
2022-09-13T15:41:53.964Z,22.40
2022-09-13T15:44:24.457Z,22.40
2022-09-13T15:46:54.150Z,22.40
2022-09-13T15:49:26.650Z,22.40
2022-09-13T15:51:56.363Z,22.30
2022-09-13T15:54:24.647Z,22.30
2022-09-13T15:56:53.082Z,22.20
2022-09-13T15:59:24.372Z,22.10
2022-09-13T16:01:53.497Z,22.10
2022-09-13T16:04:21.967Z,22.10
2022-09-13T16:06:50.786Z,22.10
2022-09-13T16:09:23.407Z,22.10
2022-09-13T16:11:52.676Z,22.00
2022-09-13T16:14:21.859Z,21.90
2022-09-13T16:16:51.618Z,21.80
2022-09-13T16:19:22.311Z,21.70
2022-09-13T16:21:50.853Z,21.70
2022-09-13T16:24:19.527Z,21.70
2022-09-13T16:26:47.521Z,21.60
2022-09-13T16:29:15.278Z,21.50
2022-09-13T16:31:43.553Z,21.40
2022-09-13T16:34:12.947Z,21.50
2022-09-13T16:36:40.848Z,21.40
2022-09-13T16:39:08.586Z,21.40
2022-09-13T16:41:36.503Z,21.40
2022-09-13T16:44:07.098Z,21.30
2022-09-13T16:46:35.174Z,21.30
2022-09-13T16:49:04.737Z,21.40
2022-09-13T16:51:34.006Z,21.30
2022-09-13T16:54:01.866Z,21.10
2022-09-13T16:56:30.297Z,21.20
2022-09-13T16:58:58.554Z,21.10
2022-09-13T17:01:28.457Z,21.00
2022-09-13T17:03:57.303Z,21.10
2022-09-13T17:06:26.721Z,21.00
2022-09-13T17:09:01.556Z,20.90
2022-09-13T17:11:32.369Z,20.80
2022-09-13T17:14:00.806Z,20.70
2022-09-13T17:16:31.339Z,20.70
2022-09-13T17:19:00.328Z,20.60
2022-09-13T17:21:29.371Z,20.60
2022-09-13T17:23:58.547Z,20.60
2022-09-13T17:26:26.351Z,20.60
2022-09-13T17:28:59.032Z,20.60
2022-09-13T17:31:26.980Z,20.70
2022-09-13T17:33:54.890Z,20.50
2022-09-13T17:36:23.410Z,20.50
2022-09-13T17:38:56.261Z,20.30
2022-09-13T17:41:26.776Z,20.20
2022-09-13T17:43:55.159Z,20.20
2022-09-13T17:46:25.234Z,20.20
2022-09-13T17:48:55.130Z,20.20
2022-09-13T17:51:25.192Z,20.10
2022-09-13T17:53:54.758Z,20.20
2022-09-13T17:56:29.544Z,20.10
2022-09-13T17:58:58.075Z,20.10
2022-09-13T18:01:26.499Z,20.00
2022-09-13T18:03:55.347Z,20.00
2022-09-13T18:06:26.186Z,20.00
2022-09-13T18:08:54.745Z,20.10
2022-09-13T18:11:24.403Z,20.00
2022-09-13T18:13:52.710Z,20.00
2022-09-13T18:16:22.714Z,19.90
2022-09-13T18:18:52.617Z,19.90
2022-09-13T18:21:22.283Z,19.80
2022-09-13T18:23:52.401Z,19.80
2022-09-13T18:26:22.147Z,19.80
2022-09-13T18:28:56.897Z,19.60
2022-09-13T18:31:25.813Z,19.60
2022-09-13T18:33:57.981Z,19.50
2022-09-13T18:36:27.032Z,19.50
2022-09-13T18:38:56.245Z,19.40
2022-09-13T18:41:25.633Z,19.30
2022-09-13T18:43:56.494Z,19.40
2022-09-13T18:46:27.355Z,19.30
2022-09-13T18:48:57.631Z,19.30
2022-09-13T18:51:27.448Z,19.30
2022-09-13T18:53:56.631Z,19.30
2022-09-13T18:56:25.494Z,19.30
2022-09-13T18:58:55.422Z,19.20
2022-09-13T19:01:25.669Z,19.20
2022-09-13T19:03:55.590Z,19.20
2022-09-13T19:06:25.282Z,19.10
2022-09-13T19:08:54.492Z,19.20
2022-09-13T19:11:45.190Z,19.00
2022-09-13T19:14:16.111Z,19.10
2022-09-13T19:16:44.060Z,19.00
2022-09-13T19:19:12.286Z,19.00
2022-09-13T19:21:40.251Z,19.10
2022-09-13T19:24:16.126Z,19.10
2022-09-13T19:26:46.516Z,19.10
2022-09-13T19:29:21.698Z,19.00
2022-09-13T19:31:52.411Z,18.90
2022-09-13T19:34:24.358Z,18.90
2022-09-13T19:36:57.784Z,18.90
2022-09-13T19:39:29.645Z,18.90
2022-09-13T19:41:58.714Z,18.90
2022-09-13T19:44:28.213Z,18.80
2022-09-13T19:47:23.850Z,18.80
2022-09-13T19:49:44.570Z,18.80
2022-09-13T19:52:12.363Z,18.70
2022-09-13T19:54:40.174Z,18.70
2022-09-13T19:57:09.541Z,18.70
2022-09-13T19:59:38.656Z,18.70
2022-09-13T20:02:06.967Z,18.70
2022-09-13T20:04:35.250Z,18.70
2022-09-13T20:07:03.004Z,18.60
2022-09-13T20:09:31.826Z,18.70
2022-09-13T20:12:00.571Z,18.60
2022-09-13T20:14:28.767Z,18.60
2022-09-13T20:16:58.652Z,18.50
2022-09-13T20:19:46.436Z,18.50
2022-09-13T20:22:14.350Z,18.50
2022-09-13T20:24:43.340Z,18.50
2022-09-13T20:27:11.499Z,18.40
2022-09-13T20:29:40.275Z,18.40
2022-09-13T20:32:10.954Z,18.50
2022-09-13T20:34:39.204Z,18.40
2022-09-13T20:37:07.104Z,18.40
2022-09-13T20:39:35.124Z,18.40
2022-09-13T20:42:03.002Z,18.50
2022-09-13T20:44:31.034Z,18.50
2022-09-13T20:46:59.073Z,18.40
2022-09-13T20:49:28.386Z,18.40
2022-09-13T20:51:56.256Z,18.40
2022-09-13T20:54:24.257Z,18.30
2022-09-13T20:56:54.170Z,18.30
2022-09-13T20:59:22.785Z,18.30
2022-09-13T21:01:51.031Z,18.20
2022-09-13T21:04:19.089Z,18.20
2022-09-13T21:07:05.999Z,18.20
2022-09-13T21:09:33.955Z,18.20
2022-09-13T21:12:02.373Z,18.20
2022-09-13T21:14:32.489Z,18.20
2022-09-13T21:17:00.478Z,18.20
2022-09-13T21:19:29.833Z,18.20
2022-09-13T21:21:59.000Z,18.20
2022-09-13T21:24:26.916Z,18.20
2022-09-13T21:26:54.650Z,18.20
2022-09-13T21:29:22.575Z,18.10
2022-09-13T21:31:50.622Z,18.10
2022-09-13T21:34:20.150Z,18.10
2022-09-13T21:36:49.267Z,18.00
2022-09-13T21:39:19.392Z,18.00
2022-09-13T21:41:47.551Z,18.00
2022-09-13T21:44:15.932Z,17.90
2022-09-13T21:46:45.974Z,18.00
2022-09-13T21:49:15.822Z,18.00
2022-09-13T21:51:45.321Z,17.90
2022-09-13T21:54:14.620Z,17.90
2022-09-13T21:56:45.338Z,18.00
2022-09-13T21:59:15.563Z,17.90
2022-09-13T22:01:46.662Z,17.90
2022-09-13T22:04:18.214Z,17.90
2022-09-13T22:06:47.732Z,17.90
2022-09-13T22:09:16.426Z,17.90
2022-09-13T22:11:47.345Z,17.90
2022-09-13T22:14:16.978Z,17.90
2022-09-13T22:16:46.424Z,17.90
2022-09-13T22:19:16.572Z,17.80
2022-09-13T22:21:46.445Z,17.90
2022-09-13T22:24:16.828Z,17.90
2022-09-13T22:26:47.672Z,18.00
2022-09-13T22:29:16.137Z,17.90
2022-09-13T22:31:46.041Z,17.90
2022-09-13T22:34:15.533Z,17.90
2022-09-13T22:36:44.358Z,17.80
2022-09-13T22:39:13.181Z,17.90
2022-09-13T22:41:41.587Z,17.80
2022-09-13T22:44:11.883Z,17.80
2022-09-13T22:46:42.088Z,17.80
2022-09-13T22:49:13.499Z,17.80
2022-09-13T22:51:41.751Z,17.80
2022-09-13T22:54:09.538Z,17.80
2022-09-13T22:56:37.934Z,17.70
2022-09-13T22:59:08.068Z,17.70
2022-09-13T23:01:38.398Z,17.70
2022-09-13T23:04:07.107Z,17.80
2022-09-13T23:06:35.963Z,17.80
2022-09-13T23:09:05.768Z,17.80
2022-09-13T23:11:35.773Z,17.80
2022-09-13T23:14:05.957Z,17.80
2022-09-13T23:16:35.743Z,17.80
2022-09-13T23:19:05.261Z,17.80
2022-09-13T23:21:34.801Z,17.80
2022-09-13T23:24:04.161Z,17.80
2022-09-13T23:26:33.369Z,17.80
2022-09-13T23:29:03.229Z,17.70
2022-09-13T23:31:32.690Z,17.70
2022-09-13T23:34:03.932Z,17.70
2022-09-13T23:36:35.547Z,17.70
2022-09-13T23:39:04.291Z,17.70
2022-09-13T23:41:33.206Z,17.80
2022-09-13T23:44:01.551Z,17.70
2022-09-13T23:46:29.625Z,17.80
2022-09-13T23:48:57.854Z,17.70
2022-09-13T23:51:27.768Z,17.70
2022-09-13T23:54:00.517Z,17.70
2022-09-13T23:56:29.969Z,17.60
2022-09-13T23:58:58.974Z,17.70
